X  Schlie├čen METAR Luftfahrt Wetterdaten     LDPL Pula Airport
Temperatur
17°C Temperatur
17°C Taupunkt
100% Feuchtigkeit



Wind
0 M/S
1 MPS
2 KM/S
1 KTS



Kein Wind
N
Aktuelle Wetterlage

Leicht  Regen Leicht Regen
Luftdruck 1015.92 (hPa) - 30 (inHg)
Sichtweite 6.2 (Meile) - 10 (Km)
Flughafen
Flughafen Code LDPL

Position : Pula Airport
Entfernung: 39 (Km)

Metar:
LDPL 050630Z VRB01KT 9999 -RA FEW025 OVC040 17/17 Q1016 NOSIG

Zeit: 05-06-2023 08:30 CEST